sensor_id;sensor_type;location;lat;lon;timestamp;P1;durP1;ratioP1;P2;durP2;ratioP2
22715;SDS011;11525;51.152;4.456;2023-12-20T00:01:49;23.67;;;6.03;;
22715;SDS011;11525;51.152;4.456;2023-12-20T00:04:15;28.45;;;6.38;;
22715;SDS011;11525;51.152;4.456;2023-12-20T00:06:40;21.33;;;5.50;;
22715;SDS011;11525;51.152;4.456;2023-12-20T00:09:06;18.73;;;5.03;;
22715;SDS011;11525;51.152;4.456;2023-12-20T00:11:32;20.92;;;5.75;;
22715;SDS011;11525;51.152;4.456;2023-12-20T00:13:58;19.10;;;5.22;;
22715;SDS011;11525;51.152;4.456;2023-12-20T00:16:24;19.25;;;5.25;;
22715;SDS011;11525;51.152;4.456;2023-12-20T00:18:49;20.60;;;5.45;;
22715;SDS011;11525;51.152;4.456;2023-12-20T00:21:15;22.02;;;6.05;;
22715;SDS011;11525;51.152;4.456;2023-12-20T00:23:41;17.05;;;4.95;;
22715;SDS011;11525;51.152;4.456;2023-12-20T00:26:07;14.85;;;4.88;;
22715;SDS011;11525;51.152;4.456;2023-12-20T00:28:33;14.00;;;5.07;;
22715;SDS011;11525;51.152;4.456;2023-12-20T00:30:59;14.63;;;5.88;;
22715;SDS011;11525;51.152;4.456;2023-12-20T00:33:24;15.52;;;5.43;;
22715;SDS011;11525;51.152;4.456;2023-12-20T00:35:50;28.27;;;5.65;;
22715;SDS011;11525;51.152;4.456;2023-12-20T00:38:16;23.25;;;6.60;;
22715;SDS011;11525;51.152;4.456;2023-12-20T00:40:42;19.38;;;6.18;;
22715;SDS011;11525;51.152;4.456;2023-12-20T00:43:08;22.60;;;6.53;;
22715;SDS011;11525;51.152;4.456;2023-12-20T00:45:33;18.95;;;5.70;;
22715;SDS011;11525;51.152;4.456;2023-12-20T00:47:59;26.20;;;6.97;;
22715;SDS011;11525;51.152;4.456;2023-12-20T00:50:25;23.35;;;6.55;;
22715;SDS011;11525;51.152;4.456;2023-12-20T00:52:50;25.65;;;6.45;;
22715;SDS011;11525;51.152;4.456;2023-12-20T00:55:16;22.02;;;5.93;;
22715;SDS011;11525;51.152;4.456;2023-12-20T00:57:42;18.90;;;6.38;;
22715;SDS011;11525;51.152;4.456;2023-12-20T01:00:08;16.33;;;6.15;;
22715;SDS011;11525;51.152;4.456;2023-12-20T01:02:38;22.73;;;7.05;;
22715;SDS011;11525;51.152;4.456;2023-12-20T01:05:04;30.73;;;7.18;;
22715;SDS011;11525;51.152;4.456;2023-12-20T01:07:30;28.02;;;7.15;;
22715;SDS011;11525;51.152;4.456;2023-12-20T01:09:56;17.85;;;6.45;;
22715;SDS011;11525;51.152;4.456;2023-12-20T01:12:21;25.80;;;8.10;;
22715;SDS011;11525;51.152;4.456;2023-12-20T01:14:47;23.25;;;8.30;;
22715;SDS011;11525;51.152;4.456;2023-12-20T01:17:13;29.25;;;8.02;;
22715;SDS011;11525;51.152;4.456;2023-12-20T01:19:39;28.48;;;9.50;;
22715;SDS011;11525;51.152;4.456;2023-12-20T01:22:04;24.13;;;9.02;;
22715;SDS011;11525;51.152;4.456;2023-12-20T01:24:30;27.95;;;9.23;;
22715;SDS011;11525;51.152;4.456;2023-12-20T01:26:56;29.25;;;8.65;;
22715;SDS011;11525;51.152;4.456;2023-12-20T01:29:22;24.05;;;8.68;;
22715;SDS011;11525;51.152;4.456;2023-12-20T01:31:48;21.58;;;8.27;;
22715;SDS011;11525;51.152;4.456;2023-12-20T01:34:14;25.98;;;8.68;;
22715;SDS011;11525;51.152;4.456;2023-12-20T01:36:39;30.90;;;9.40;;
22715;SDS011;11525;51.152;4.456;2023-12-20T01:39:05;28.15;;;9.63;;
22715;SDS011;11525;51.152;4.456;2023-12-20T01:41:31;23.60;;;8.65;;
22715;SDS011;11525;51.152;4.456;2023-12-20T01:43:57;33.53;;;9.43;;
22715;SDS011;11525;51.152;4.456;2023-12-20T01:46:23;22.60;;;8.88;;
22715;SDS011;11525;51.152;4.456;2023-12-20T01:48:49;26.35;;;9.63;;
22715;SDS011;11525;51.152;4.456;2023-12-20T01:51:15;27.17;;;9.82;;
22715;SDS011;11525;51.152;4.456;2023-12-20T01:53:41;35.35;;;10.32;;
22715;SDS011;11525;51.152;4.456;2023-12-20T01:56:08;24.55;;;9.75;;
22715;SDS011;11525;51.152;4.456;2023-12-20T01:58:35;29.73;;;10.00;;
22715;SDS011;11525;51.152;4.456;2023-12-20T02:01:08;27.17;;;10.15;;
22715;SDS011;11525;51.152;4.456;2023-12-20T02:03:35;28.13;;;10.13;;
22715;SDS011;11525;51.152;4.456;2023-12-20T02:06:02;27.45;;;10.52;;
22715;SDS011;11525;51.152;4.456;2023-12-20T02:08:29;23.73;;;9.52;;
22715;SDS011;11525;51.152;4.456;2023-12-20T02:10:55;31.88;;;9.77;;
22715;SDS011;11525;51.152;4.456;2023-12-20T02:13:24;30.63;;;9.50;;
22715;SDS011;11525;51.152;4.456;2023-12-20T02:15:51;21.95;;;7.97;;
22715;SDS011;11525;51.152;4.456;2023-12-20T02:18:17;29.88;;;8.35;;
22715;SDS011;11525;51.152;4.456;2023-12-20T02:20:43;26.50;;;9.00;;
22715;SDS011;11525;51.152;4.456;2023-12-20T02:23:09;24.70;;;8.35;;
22715;SDS011;11525;51.152;4.456;2023-12-20T02:25:35;28.40;;;8.88;;
22715;SDS011;11525;51.152;4.456;2023-12-20T02:28:02;26.40;;;8.60;;
22715;SDS011;11525;51.152;4.456;2023-12-20T02:30:29;22.35;;;7.70;;
22715;SDS011;11525;51.152;4.456;2023-12-20T02:32:54;29.95;;;8.02;;
22715;SDS011;11525;51.152;4.456;2023-12-20T02:35:21;31.08;;;8.25;;
22715;SDS011;11525;51.152;4.456;2023-12-20T02:37:46;18.33;;;6.95;;
22715;SDS011;11525;51.152;4.456;2023-12-20T02:40:12;21.85;;;7.55;;
22715;SDS011;11525;51.152;4.456;2023-12-20T02:42:38;29.48;;;8.48;;
22715;SDS011;11525;51.152;4.456;2023-12-20T02:45:04;28.58;;;8.00;;
22715;SDS011;11525;51.152;4.456;2023-12-20T02:47:30;27.08;;;7.38;;
22715;SDS011;11525;51.152;4.456;2023-12-20T02:49:56;18.40;;;7.15;;
22715;SDS011;11525;51.152;4.456;2023-12-20T02:52:24;23.55;;;7.40;;
22715;SDS011;11525;51.152;4.456;2023-12-20T02:54:50;25.63;;;6.97;;
22715;SDS011;11525;51.152;4.456;2023-12-20T02:57:16;24.98;;;7.78;;
22715;SDS011;11525;51.152;4.456;2023-12-20T02:59:42;30.10;;;7.03;;
22715;SDS011;11525;51.152;4.456;2023-12-20T03:02:08;22.90;;;7.68;;
22715;SDS011;11525;51.152;4.456;2023-12-20T03:04:36;19.92;;;6.90;;
22715;SDS011;11525;51.152;4.456;2023-12-20T03:07:02;26.50;;;7.05;;
22715;SDS011;11525;51.152;4.456;2023-12-20T03:09:28;28.98;;;7.80;;
22715;SDS011;11525;51.152;4.456;2023-12-20T03:11:53;26.02;;;7.20;;
22715;SDS011;11525;51.152;4.456;2023-12-20T03:14:19;25.85;;;7.05;;
22715;SDS011;11525;51.152;4.456;2023-12-20T03:16:51;23.42;;;6.75;;
22715;SDS011;11525;51.152;4.456;2023-12-20T03:19:17;20.77;;;6.68;;
22715;SDS011;11525;51.152;4.456;2023-12-20T03:21:46;31.05;;;7.53;;
22715;SDS011;11525;51.152;4.456;2023-12-20T03:24:12;25.65;;;8.00;;
22715;SDS011;11525;51.152;4.456;2023-12-20T03:26:37;27.08;;;7.75;;
22715;SDS011;11525;51.152;4.456;2023-12-20T03:29:06;30.95;;;7.13;;
22715;SDS011;11525;51.152;4.456;2023-12-20T03:31:32;22.88;;;7.55;;
22715;SDS011;11525;51.152;4.456;2023-12-20T03:33:58;23.83;;;7.50;;
22715;SDS011;11525;51.152;4.456;2023-12-20T03:36:24;28.15;;;7.53;;
22715;SDS011;11525;51.152;4.456;2023-12-20T03:38:49;25.15;;;7.38;;
22715;SDS011;11525;51.152;4.456;2023-12-20T03:41:15;28.73;;;7.45;;
22715;SDS011;11525;51.152;4.456;2023-12-20T03:43:41;27.67;;;6.32;;
22715;SDS011;11525;51.152;4.456;2023-12-20T03:46:08;22.85;;;6.78;;
22715;SDS011;11525;51.152;4.456;2023-12-20T03:48:34;26.80;;;6.28;;
22715;SDS011;11525;51.152;4.456;2023-12-20T03:50:59;28.48;;;7.18;;
22715;SDS011;11525;51.152;4.456;2023-12-20T03:53:25;27.73;;;7.10;;
22715;SDS011;11525;51.152;4.456;2023-12-20T03:55:51;32.03;;;7.30;;
22715;SDS011;11525;51.152;4.456;2023-12-20T03:58:17;22.95;;;6.60;;
22715;SDS011;11525;51.152;4.456;2023-12-20T04:00:42;22.52;;;7.45;;
22715;SDS011;11525;51.152;4.456;2023-12-20T04:03:08;30.77;;;8.15;;
22715;SDS011;11525;51.152;4.456;2023-12-20T04:05:34;31.85;;;7.45;;
22715;SDS011;11525;51.152;4.456;2023-12-20T04:08:01;18.98;;;6.50;;
22715;SDS011;11525;51.152;4.456;2023-12-20T04:10:29;26.75;;;7.10;;
22715;SDS011;11525;51.152;4.456;2023-12-20T04:12:55;22.23;;;7.50;;
22715;SDS011;11525;51.152;4.456;2023-12-20T04:15:21;19.23;;;7.03;;
22715;SDS011;11525;51.152;4.456;2023-12-20T04:17:46;29.25;;;8.60;;
22715;SDS011;11525;51.152;4.456;2023-12-20T04:20:12;31.00;;;7.88;;
22715;SDS011;11525;51.152;4.456;2023-12-20T04:22:38;28.20;;;7.30;;
22715;SDS011;11525;51.152;4.456;2023-12-20T04:25:04;31.40;;;7.30;;
22715;SDS011;11525;51.152;4.456;2023-12-20T04:27:30;28.73;;;7.38;;
22715;SDS011;11525;51.152;4.456;2023-12-20T04:29:56;25.23;;;8.20;;
22715;SDS011;11525;51.152;4.456;2023-12-20T04:32:21;37.00;;;8.65;;
22715;SDS011;11525;51.152;4.456;2023-12-20T04:34:47;33.60;;;7.80;;
22715;SDS011;11525;51.152;4.456;2023-12-20T04:37:13;25.67;;;7.97;;
22715;SDS011;11525;51.152;4.456;2023-12-20T04:39:39;27.17;;;8.15;;
22715;SDS011;11525;51.152;4.456;2023-12-20T04:42:06;23.17;;;7.30;;
22715;SDS011;11525;51.152;4.456;2023-12-20T04:44:32;25.98;;;7.45;;
22715;SDS011;11525;51.152;4.456;2023-12-20T04:46:58;30.52;;;7.47;;
22715;SDS011;11525;51.152;4.456;2023-12-20T04:49:24;32.20;;;7.55;;
22715;SDS011;11525;51.152;4.456;2023-12-20T04:51:49;29.15;;;7.82;;
22715;SDS011;11525;51.152;4.456;2023-12-20T04:54:15;31.50;;;7.65;;
22715;SDS011;11525;51.152;4.456;2023-12-20T04:56:41;34.00;;;7.93;;
22715;SDS011;11525;51.152;4.456;2023-12-20T04:59:07;20.83;;;6.80;;
22715;SDS011;11525;51.152;4.456;2023-12-20T05:01:32;27.73;;;7.65;;
22715;SDS011;11525;51.152;4.456;2023-12-20T05:03:58;32.08;;;7.88;;
22715;SDS011;11525;51.152;4.456;2023-12-20T05:06:24;30.40;;;7.85;;
22715;SDS011;11525;51.152;4.456;2023-12-20T05:08:50;30.75;;;8.07;;
22715;SDS011;11525;51.152;4.456;2023-12-20T05:11:16;34.60;;;8.45;;
22715;SDS011;11525;51.152;4.456;2023-12-20T05:13:42;33.03;;;7.97;;
22715;SDS011;11525;51.152;4.456;2023-12-20T05:16:08;31.85;;;8.15;;
22715;SDS011;11525;51.152;4.456;2023-12-20T05:18:34;26.02;;;7.88;;
22715;SDS011;11525;51.152;4.456;2023-12-20T05:21:00;26.67;;;7.80;;
22715;SDS011;11525;51.152;4.456;2023-12-20T05:23:26;30.55;;;8.35;;
22715;SDS011;11525;51.152;4.456;2023-12-20T05:25:51;25.95;;;7.32;;
22715;SDS011;11525;51.152;4.456;2023-12-20T05:28:18;21.15;;;6.68;;
22715;SDS011;11525;51.152;4.456;2023-12-20T05:30:43;26.83;;;7.50;;
22715;SDS011;11525;51.152;4.456;2023-12-20T05:33:09;35.70;;;8.27;;
22715;SDS011;11525;51.152;4.456;2023-12-20T05:35:35;27.60;;;8.82;;
22715;SDS011;11525;51.152;4.456;2023-12-20T05:38:01;27.90;;;7.30;;
22715;SDS011;11525;51.152;4.456;2023-12-20T05:40:27;29.45;;;7.85;;
22715;SDS011;11525;51.152;4.456;2023-12-20T05:42:53;29.92;;;8.07;;
22715;SDS011;11525;51.152;4.456;2023-12-20T05:45:19;30.58;;;8.35;;
22715;SDS011;11525;51.152;4.456;2023-12-20T05:47:46;29.63;;;7.60;;
22715;SDS011;11525;51.152;4.456;2023-12-20T05:50:11;29.58;;;8.00;;
22715;SDS011;11525;51.152;4.456;2023-12-20T05:52:40;26.17;;;7.63;;
22715;SDS011;11525;51.152;4.456;2023-12-20T05:55:06;25.95;;;7.90;;
22715;SDS011;11525;51.152;4.456;2023-12-20T05:57:32;30.17;;;7.60;;
22715;SDS011;11525;51.152;4.456;2023-12-20T05:59:57;30.42;;;7.68;;
22715;SDS011;11525;51.152;4.456;2023-12-20T06:02:23;24.30;;;7.30;;
22715;SDS011;11525;51.152;4.456;2023-12-20T06:04:49;28.98;;;7.80;;
22715;SDS011;11525;51.152;4.456;2023-12-20T06:07:20;31.23;;;8.38;;
22715;SDS011;11525;51.152;4.456;2023-12-20T06:09:58;30.88;;;7.75;;
22715;SDS011;11525;51.152;4.456;2023-12-20T06:12:42;19.10;;;6.90;;
22715;SDS011;11525;51.152;4.456;2023-12-20T06:15:07;26.90;;;7.68;;
22715;SDS011;11525;51.152;4.456;2023-12-20T06:17:34;28.25;;;8.25;;
22715;SDS011;11525;51.152;4.456;2023-12-20T06:20:00;26.98;;;7.13;;
22715;SDS011;11525;51.152;4.456;2023-12-20T06:22:26;22.70;;;7.10;;
22715;SDS011;11525;51.152;4.456;2023-12-20T06:24:52;27.88;;;7.10;;
22715;SDS011;11525;51.152;4.456;2023-12-20T06:27:17;30.27;;;7.43;;
22715;SDS011;11525;51.152;4.456;2023-12-20T06:29:43;26.63;;;7.30;;
22715;SDS011;11525;51.152;4.456;2023-12-20T06:32:10;31.38;;;8.65;;
22715;SDS011;11525;51.152;4.456;2023-12-20T06:34:36;21.73;;;7.68;;
22715;SDS011;11525;51.152;4.456;2023-12-20T06:37:03;23.70;;;6.97;;
22715;SDS011;11525;51.152;4.456;2023-12-20T06:39:30;28.58;;;7.30;;
22715;SDS011;11525;51.152;4.456;2023-12-20T06:41:55;26.05;;;6.95;;
22715;SDS011;11525;51.152;4.456;2023-12-20T06:44:21;25.13;;;6.95;;
22715;SDS011;11525;51.152;4.456;2023-12-20T06:46:47;29.42;;;7.68;;
22715;SDS011;11525;51.152;4.456;2023-12-20T06:49:12;22.45;;;6.68;;
22715;SDS011;11525;51.152;4.456;2023-12-20T06:51:38;25.20;;;7.53;;
22715;SDS011;11525;51.152;4.456;2023-12-20T06:54:04;19.20;;;6.85;;
22715;SDS011;11525;51.152;4.456;2023-12-20T06:56:30;27.40;;;7.32;;
22715;SDS011;11525;51.152;4.456;2023-12-20T06:58:56;27.85;;;7.53;;
22715;SDS011;11525;51.152;4.456;2023-12-20T07:01:21;31.52;;;7.40;;
22715;SDS011;11525;51.152;4.456;2023-12-20T07:03:47;19.02;;;7.18;;
22715;SDS011;11525;51.152;4.456;2023-12-20T07:06:13;27.48;;;7.68;;
22715;SDS011;11525;51.152;4.456;2023-12-20T07:08:41;26.40;;;7.13;;
22715;SDS011;11525;51.152;4.456;2023-12-20T07:11:07;29.30;;;7.82;;
22715;SDS011;11525;51.152;4.456;2023-12-20T07:13:32;26.92;;;8.20;;
22715;SDS011;11525;51.152;4.456;2023-12-20T07:15:58;22.60;;;6.53;;
22715;SDS011;11525;51.152;4.456;2023-12-20T07:18:27;28.20;;;7.37;;
22715;SDS011;11525;51.152;4.456;2023-12-20T07:20:52;22.27;;;6.53;;
22715;SDS011;11525;51.152;4.456;2023-12-20T07:23:19;24.45;;;6.13;;
22715;SDS011;11525;51.152;4.456;2023-12-20T07:25:45;22.00;;;6.65;;
22715;SDS011;11525;51.152;4.456;2023-12-20T07:28:11;23.80;;;8.00;;
22715;SDS011;11525;51.152;4.456;2023-12-20T07:30:36;29.55;;;7.05;;
22715;SDS011;11525;51.152;4.456;2023-12-20T07:33:02;23.73;;;6.70;;
22715;SDS011;11525;51.152;4.456;2023-12-20T07:35:28;28.05;;;7.10;;
22715;SDS011;11525;51.152;4.456;2023-12-20T07:37:54;27.95;;;7.88;;
22715;SDS011;11525;51.152;4.456;2023-12-20T07:40:19;28.00;;;7.07;;
22715;SDS011;11525;51.152;4.456;2023-12-20T07:42:45;24.73;;;6.78;;
22715;SDS011;11525;51.152;4.456;2023-12-20T07:45:11;29.50;;;6.95;;
22715;SDS011;11525;51.152;4.456;2023-12-20T07:47:37;23.63;;;7.22;;
22715;SDS011;11525;51.152;4.456;2023-12-20T07:50:03;27.33;;;7.03;;
22715;SDS011;11525;51.152;4.456;2023-12-20T07:52:29;26.42;;;6.55;;
22715;SDS011;11525;51.152;4.456;2023-12-20T07:54:55;27.80;;;6.57;;
22715;SDS011;11525;51.152;4.456;2023-12-20T07:57:21;23.60;;;6.00;;
22715;SDS011;11525;51.152;4.456;2023-12-20T07:59:47;26.10;;;6.25;;
22715;SDS011;11525;51.152;4.456;2023-12-20T08:02:12;32.00;;;6.60;;
22715;SDS011;11525;51.152;4.456;2023-12-20T08:04:38;29.67;;;7.68;;
22715;SDS011;11525;51.152;4.456;2023-12-20T08:07:04;24.50;;;6.38;;
22715;SDS011;11525;51.152;4.456;2023-12-20T08:09:29;21.88;;;6.40;;
22715;SDS011;11525;51.152;4.456;2023-12-20T08:11:56;21.13;;;5.78;;
22715;SDS011;11525;51.152;4.456;2023-12-20T08:14:24;22.48;;;6.43;;
22715;SDS011;11525;51.152;4.456;2023-12-20T08:16:50;27.55;;;6.80;;
22715;SDS011;11525;51.152;4.456;2023-12-20T08:19:16;25.73;;;5.93;;
22715;SDS011;11525;51.152;4.456;2023-12-20T08:21:42;23.23;;;7.07;;
22715;SDS011;11525;51.152;4.456;2023-12-20T08:24:07;23.15;;;6.68;;
22715;SDS011;11525;51.152;4.456;2023-12-20T08:26:33;25.83;;;7.43;;
22715;SDS011;11525;51.152;4.456;2023-12-20T08:28:59;24.05;;;6.45;;
22715;SDS011;11525;51.152;4.456;2023-12-20T08:31:25;24.73;;;6.70;;
22715;SDS011;11525;51.152;4.456;2023-12-20T08:33:51;25.45;;;6.53;;
22715;SDS011;11525;51.152;4.456;2023-12-20T08:36:19;24.98;;;6.03;;
22715;SDS011;11525;51.152;4.456;2023-12-20T08:38:47;23.48;;;5.70;;
22715;SDS011;11525;51.152;4.456;2023-12-20T08:41:13;15.15;;;5.28;;
22715;SDS011;11525;51.152;4.456;2023-12-20T08:43:39;14.88;;;6.30;;
22715;SDS011;11525;51.152;4.456;2023-12-20T08:46:07;18.23;;;6.25;;
22715;SDS011;11525;51.152;4.456;2023-12-20T08:48:34;21.20;;;6.60;;
22715;SDS011;11525;51.152;4.456;2023-12-20T08:51:00;21.15;;;5.60;;
22715;SDS011;11525;51.152;4.456;2023-12-20T08:53:26;23.10;;;6.32;;
22715;SDS011;11525;51.152;4.456;2023-12-20T08:55:52;22.10;;;6.25;;
22715;SDS011;11525;51.152;4.456;2023-12-20T08:58:18;24.50;;;5.72;;
22715;SDS011;11525;51.152;4.456;2023-12-20T09:00:43;17.02;;;5.47;;
22715;SDS011;11525;51.152;4.456;2023-12-20T09:03:10;20.15;;;6.07;;
22715;SDS011;11525;51.152;4.456;2023-12-20T09:05:35;18.48;;;4.93;;
22715;SDS011;11525;51.152;4.456;2023-12-20T09:08:01;18.02;;;5.13;;
22715;SDS011;11525;51.152;4.456;2023-12-20T09:10:27;18.85;;;6.07;;
22715;SDS011;11525;51.152;4.456;2023-12-20T09:12:53;20.88;;;5.38;;
22715;SDS011;11525;51.152;4.456;2023-12-20T09:15:22;19.25;;;5.47;;
22715;SDS011;11525;51.152;4.456;2023-12-20T09:17:48;19.40;;;5.80;;
22715;SDS011;11525;51.152;4.456;2023-12-20T09:20:14;16.63;;;5.22;;
22715;SDS011;11525;51.152;4.456;2023-12-20T09:22:40;19.02;;;4.88;;
22715;SDS011;11525;51.152;4.456;2023-12-20T09:25:07;16.50;;;5.65;;
22715;SDS011;11525;51.152;4.456;2023-12-20T09:27:35;14.93;;;4.97;;
22715;SDS011;11525;51.152;4.456;2023-12-20T09:30:01;16.38;;;4.95;;
22715;SDS011;11525;51.152;4.456;2023-12-20T09:32:26;15.30;;;4.80;;
22715;SDS011;11525;51.152;4.456;2023-12-20T09:34:52;18.85;;;5.38;;
22715;SDS011;11525;51.152;4.456;2023-12-20T09:37:18;17.00;;;4.93;;
22715;SDS011;11525;51.152;4.456;2023-12-20T09:39:43;13.65;;;4.32;;
22715;SDS011;11525;51.152;4.456;2023-12-20T09:42:10;13.60;;;4.47;;
22715;SDS011;11525;51.152;4.456;2023-12-20T09:44:42;17.13;;;4.97;;
22715;SDS011;11525;51.152;4.456;2023-12-20T09:47:09;20.52;;;5.47;;
22715;SDS011;11525;51.152;4.456;2023-12-20T09:49:36;13.73;;;4.88;;
22715;SDS011;11525;51.152;4.456;2023-12-20T09:52:02;12.05;;;4.65;;
22715;SDS011;11525;51.152;4.456;2023-12-20T09:54:31;18.23;;;5.30;;
22715;SDS011;11525;51.152;4.456;2023-12-20T09:56:57;18.20;;;5.53;;
22715;SDS011;11525;51.152;4.456;2023-12-20T09:59:23;18.35;;;5.85;;
22715;SDS011;11525;51.152;4.456;2023-12-20T10:01:49;17.02;;;5.10;;
22715;SDS011;11525;51.152;4.456;2023-12-20T10:04:16;20.20;;;5.15;;
22715;SDS011;11525;51.152;4.456;2023-12-20T10:06:42;20.92;;;4.68;;
22715;SDS011;11525;51.152;4.456;2023-12-20T10:09:10;22.15;;;4.95;;
22715;SDS011;11525;51.152;4.456;2023-12-20T10:11:38;18.23;;;5.05;;
22715;SDS011;11525;51.152;4.456;2023-12-20T10:14:04;16.55;;;5.28;;
22715;SDS011;11525;51.152;4.456;2023-12-20T10:16:31;15.77;;;4.30;;
22715;SDS011;11525;51.152;4.456;2023-12-20T10:18:58;20.27;;;5.72;;
22715;SDS011;11525;51.152;4.456;2023-12-20T10:21:26;20.25;;;5.40;;
22715;SDS011;11525;51.152;4.456;2023-12-20T10:23:53;21.40;;;5.45;;
22715;SDS011;11525;51.152;4.456;2023-12-20T10:26:20;18.23;;;6.00;;
22715;SDS011;11525;51.152;4.456;2023-12-20T10:28:46;17.08;;;4.90;;
22715;SDS011;11525;51.152;4.456;2023-12-20T10:33:58;19.95;;;5.03;;
22715;SDS011;11525;51.152;4.456;2023-12-20T10:36:25;21.23;;;5.47;;
22715;SDS011;11525;51.152;4.456;2023-12-20T10:38:52;14.10;;;5.47;;
22715;SDS011;11525;51.152;4.456;2023-12-20T10:41:21;16.30;;;5.03;;
22715;SDS011;11525;51.152;4.456;2023-12-20T10:43:53;21.58;;;5.55;;
22715;SDS011;11525;51.152;4.456;2023-12-20T10:46:23;17.75;;;5.32;;
22715;SDS011;11525;51.152;4.456;2023-12-20T10:48:51;17.90;;;5.32;;
22715;SDS011;11525;51.152;4.456;2023-12-20T10:51:19;20.13;;;5.53;;
22715;SDS011;11525;51.152;4.456;2023-12-20T10:53:48;22.60;;;5.93;;
22715;SDS011;11525;51.152;4.456;2023-12-20T10:56:16;14.90;;;6.05;;
22715;SDS011;11525;51.152;4.456;2023-12-20T10:58:46;20.23;;;5.50;;
22715;SDS011;11525;51.152;4.456;2023-12-20T11:01:15;19.30;;;6.10;;
22715;SDS011;11525;51.152;4.456;2023-12-20T11:03:44;24.77;;;6.28;;
22715;SDS011;11525;51.152;4.456;2023-12-20T11:09:12;20.48;;;6.05;;
22715;SDS011;11525;51.152;4.456;2023-12-20T11:12:02;18.90;;;5.53;;
22715;SDS011;11525;51.152;4.456;2023-12-20T11:17:12;24.00;;;5.63;;
22715;SDS011;11525;51.152;4.456;2023-12-20T11:22:19;19.63;;;5.47;;
22715;SDS011;11525;51.152;4.456;2023-12-20T11:24:46;27.30;;;6.63;;
22715;SDS011;11525;51.152;4.456;2023-12-20T11:27:13;25.48;;;5.55;;
22715;SDS011;11525;51.152;4.456;2023-12-20T11:29:39;16.17;;;4.65;;
22715;SDS011;11525;51.152;4.456;2023-12-20T11:35:00;24.40;;;6.40;;
22715;SDS011;11525;51.152;4.456;2023-12-20T11:37:41;19.75;;;5.55;;
22715;SDS011;11525;51.152;4.456;2023-12-20T11:40:08;18.25;;;5.60;;
22715;SDS011;11525;51.152;4.456;2023-12-20T11:42:40;14.90;;;5.78;;
22715;SDS011;11525;51.152;4.456;2023-12-20T11:45:08;21.83;;;6.22;;
22715;SDS011;11525;51.152;4.456;2023-12-20T11:47:35;21.88;;;5.70;;
22715;SDS011;11525;51.152;4.456;2023-12-20T11:50:01;19.88;;;5.15;;
22715;SDS011;11525;51.152;4.456;2023-12-20T11:52:29;27.73;;;6.25;;
22715;SDS011;11525;51.152;4.456;2023-12-20T11:54:55;24.58;;;6.43;;
22715;SDS011;11525;51.152;4.456;2023-12-20T11:57:22;24.55;;;6.70;;
22715;SDS011;11525;51.152;4.456;2023-12-20T11:59:48;21.15;;;6.28;;
22715;SDS011;11525;51.152;4.456;2023-12-20T12:02:14;22.65;;;6.30;;
22715;SDS011;11525;51.152;4.456;2023-12-20T12:04:43;20.40;;;6.03;;
22715;SDS011;11525;51.152;4.456;2023-12-20T12:07:08;21.02;;;6.25;;
22715;SDS011;11525;51.152;4.456;2023-12-20T12:09:34;22.38;;;6.25;;
22715;SDS011;11525;51.152;4.456;2023-12-20T12:12:00;22.95;;;6.07;;
22715;SDS011;11525;51.152;4.456;2023-12-20T12:14:26;23.27;;;9.07;;
22715;SDS011;11525;51.152;4.456;2023-12-20T12:16:52;22.45;;;5.43;;
22715;SDS011;11525;51.152;4.456;2023-12-20T12:19:22;18.48;;;5.95;;
22715;SDS011;11525;51.152;4.456;2023-12-20T12:22:03;22.25;;;5.82;;
22715;SDS011;11525;51.152;4.456;2023-12-20T12:24:34;25.15;;;5.88;;
22715;SDS011;11525;51.152;4.456;2023-12-20T12:27:00;23.17;;;5.32;;
22715;SDS011;11525;51.152;4.456;2023-12-20T12:29:25;24.85;;;6.50;;
22715;SDS011;11525;51.152;4.456;2023-12-20T12:31:52;20.05;;;5.90;;
22715;SDS011;11525;51.152;4.456;2023-12-20T12:34:18;20.13;;;6.07;;
22715;SDS011;11525;51.152;4.456;2023-12-20T12:36:44;21.70;;;5.82;;
22715;SDS011;11525;51.152;4.456;2023-12-20T12:39:14;16.48;;;5.28;;
22715;SDS011;11525;51.152;4.456;2023-12-20T12:41:40;22.75;;;5.75;;
22715;SDS011;11525;51.152;4.456;2023-12-20T12:44:06;19.98;;;5.93;;
22715;SDS011;11525;51.152;4.456;2023-12-20T12:46:32;25.48;;;5.78;;
22715;SDS011;11525;51.152;4.456;2023-12-20T12:48:58;18.85;;;5.47;;
22715;SDS011;11525;51.152;4.456;2023-12-20T12:51:24;20.48;;;5.57;;
22715;SDS011;11525;51.152;4.456;2023-12-20T12:53:50;24.05;;;6.05;;
22715;SDS011;11525;51.152;4.456;2023-12-20T12:56:16;24.73;;;6.07;;
22715;SDS011;11525;51.152;4.456;2023-12-20T12:58:42;18.63;;;5.93;;
22715;SDS011;11525;51.152;4.456;2023-12-20T13:01:08;16.67;;;5.93;;
22715;SDS011;11525;51.152;4.456;2023-12-20T13:03:34;18.58;;;5.60;;
22715;SDS011;11525;51.152;4.456;2023-12-20T13:06:00;24.75;;;6.43;;
22715;SDS011;11525;51.152;4.456;2023-12-20T13:08:26;25.33;;;5.60;;
22715;SDS011;11525;51.152;4.456;2023-12-20T13:10:53;22.88;;;6.03;;
22715;SDS011;11525;51.152;4.456;2023-12-20T13:13:19;16.88;;;5.35;;
22715;SDS011;11525;51.152;4.456;2023-12-20T13:15:44;22.77;;;6.07;;
22715;SDS011;11525;51.152;4.456;2023-12-20T13:18:16;18.10;;;5.38;;
22715;SDS011;11525;51.152;4.456;2023-12-20T13:20:43;24.63;;;5.68;;
22715;SDS011;11525;51.152;4.456;2023-12-20T13:23:09;19.40;;;5.10;;
22715;SDS011;11525;51.152;4.456;2023-12-20T13:25:35;19.77;;;6.07;;
22715;SDS011;11525;51.152;4.456;2023-12-20T13:28:01;17.98;;;5.25;;
22715;SDS011;11525;51.152;4.456;2023-12-20T13:30:28;26.08;;;5.88;;
22715;SDS011;11525;51.152;4.456;2023-12-20T13:32:53;16.90;;;4.95;;
22715;SDS011;11525;51.152;4.456;2023-12-20T13:35:19;23.58;;;6.07;;
22715;SDS011;11525;51.152;4.456;2023-12-20T13:37:45;23.45;;;5.90;;
22715;SDS011;11525;51.152;4.456;2023-12-20T13:40:11;19.20;;;5.22;;
22715;SDS011;11525;51.152;4.456;2023-12-20T13:42:37;27.25;;;6.15;;
22715;SDS011;11525;51.152;4.456;2023-12-20T13:45:04;14.10;;;4.65;;
22715;SDS011;11525;51.152;4.456;2023-12-20T13:47:31;22.40;;;5.75;;
22715;SDS011;11525;51.152;4.456;2023-12-20T13:49:57;25.60;;;5.60;;
22715;SDS011;11525;51.152;4.456;2023-12-20T13:52:23;14.73;;;5.28;;
22715;SDS011;11525;51.152;4.456;2023-12-20T13:54:49;19.98;;;4.88;;
22715;SDS011;11525;51.152;4.456;2023-12-20T13:57:14;22.55;;;5.43;;
22715;SDS011;11525;51.152;4.456;2023-12-20T13:59:40;24.05;;;5.53;;
22715;SDS011;11525;51.152;4.456;2023-12-20T14:02:06;25.95;;;5.15;;
22715;SDS011;11525;51.152;4.456;2023-12-20T14:04:32;22.13;;;6.32;;
22715;SDS011;11525;51.152;4.456;2023-12-20T14:06:57;18.75;;;5.07;;
22715;SDS011;11525;51.152;4.456;2023-12-20T14:09:23;22.75;;;5.13;;
22715;SDS011;11525;51.152;4.456;2023-12-20T14:11:49;15.80;;;4.70;;
22715;SDS011;11525;51.152;4.456;2023-12-20T14:14:15;19.70;;;5.10;;
22715;SDS011;11525;51.152;4.456;2023-12-20T14:16:41;22.90;;;5.07;;
22715;SDS011;11525;51.152;4.456;2023-12-20T14:19:10;16.33;;;4.85;;
22715;SDS011;11525;51.152;4.456;2023-12-20T14:21:36;17.98;;;4.95;;
22715;SDS011;11525;51.152;4.456;2023-12-20T14:24:01;30.75;;;5.78;;
22715;SDS011;11525;51.152;4.456;2023-12-20T14:26:29;19.02;;;5.13;;
22715;SDS011;11525;51.152;4.456;2023-12-20T14:28:57;18.90;;;5.50;;
22715;SDS011;11525;51.152;4.456;2023-12-20T14:31:23;16.73;;;4.93;;
22715;SDS011;11525;51.152;4.456;2023-12-20T14:33:50;20.50;;;5.93;;
22715;SDS011;11525;51.152;4.456;2023-12-20T14:36:18;22.92;;;5.38;;
22715;SDS011;11525;51.152;4.456;2023-12-20T14:38:45;22.20;;;5.07;;
22715;SDS011;11525;51.152;4.456;2023-12-20T14:41:12;20.15;;;5.50;;
22715;SDS011;11525;51.152;4.456;2023-12-20T14:43:38;20.67;;;5.40;;